VOZ593 YBSU-YBHM
Flight info
| Callsign | VOZ593 |
|---|---|
| Flight time | 1h 12m |
| Altitude | 36000 |
| Route | SU DCT TAPET Q67 OVRON |
| Aircraft | B77W/H-SDE1E2E3FGHIJ2J3J4J5M1RWXY/LB1D1 |
Departure
| Time | 2026-04-26 00:11 |
|---|---|
| Airport | Sunshine Coast Airport (YBSU) |
Arrival
| Time | 2026-04-26 01:23 |
|---|---|
| Airport | Hamilton Island Airport (YBHM) |
| Time | Latitude | Longitude | Altitude | Speed | Heading |
|---|---|---|---|---|---|
| 2026-04-25 23:51 | -26.60654 | 153.08931 | 28 ft | 0 kts | 285° |
| 2026-04-26 00:01 | -26.60655 | 153.08937 | 29 ft | 2 kts | 285° |
| 2026-04-26 00:01 | -26.60659 | 153.08954 | 29 ft | 2 kts | 285° |
| 2026-04-26 00:01 | -26.60663 | 153.08971 | 29 ft | 2 kts | 285° |
| 2026-04-26 00:02 | -26.60667 | 153.08986 | 29 ft | 2 kts | 285° |
| 2026-04-26 00:02 | -26.60672 | 153.09003 | 29 ft | 2 kts | 303° |
| 2026-04-26 00:02 | -26.60683 | 153.09015 | 29 ft | 2 kts | 333° |
| 2026-04-26 00:02 | -26.60697 | 153.09019 | 29 ft | 2 kts | 359° |
| 2026-04-26 00:03 | -26.60707 | 153.09018 | 29 ft | 1 kts | 15° |
| 2026-04-26 00:03 | -26.60710 | 153.09018 | 29 ft | 0 kts | 15° |
| 2026-04-26 00:04 | -26.60703 | 153.09019 | 29 ft | 3 kts | 15° |
| 2026-04-26 00:04 | -26.60651 | 153.09035 | 29 ft | 11 kts | 14° |
| 2026-04-26 00:05 | -26.60552 | 153.09062 | 29 ft | 17 kts | 14° |
| 2026-04-26 00:05 | -26.60432 | 153.09030 | 29 ft | 20 kts | 322° |
| 2026-04-26 00:05 | -26.60309 | 153.08922 | 29 ft | 23 kts | 322° |
| 2026-04-26 00:05 | -26.60173 | 153.08806 | 29 ft | 25 kts | 323° |
| 2026-04-26 00:06 | -26.60022 | 153.08679 | 29 ft | 27 kts | 322° |
| 2026-04-26 00:06 | -26.59870 | 153.08548 | 29 ft | 26 kts | 322° |
| 2026-04-26 00:06 | -26.59727 | 153.08424 | 29 ft | 25 kts | 323° |
| 2026-04-26 00:06 | -26.59589 | 153.08307 | 30 ft | 23 kts | 322° |
| 2026-04-26 00:07 | -26.59469 | 153.08203 | 32 ft | 19 kts | 323° |
| 2026-04-26 00:07 | -26.59394 | 153.08205 | 32 ft | 1 kts | 52° |
| 2026-04-26 00:07 | -26.59390 | 153.08211 | 32 ft | 0 kts | 53° |
| 2026-04-26 00:08 | -26.59389 | 153.08212 | 32 ft | 0 kts | 53° |
| 2026-04-26 00:08 | -26.59370 | 153.08240 | 32 ft | 7 kts | 53° |
| 2026-04-26 00:08 | -26.59320 | 153.08283 | 34 ft | 10 kts | 0° |
| 2026-04-26 00:08 | -26.59231 | 153.08229 | 35 ft | 17 kts | 319° |
| 2026-04-26 00:09 | -26.59113 | 153.08127 | 34 ft | 25 kts | 322° |
| 2026-04-26 00:09 | -26.58951 | 153.07988 | 32 ft | 30 kts | 322° |
| 2026-04-26 00:09 | -26.58781 | 153.07837 | 29 ft | 30 kts | 320° |
| 2026-04-26 00:09 | -26.58608 | 153.07687 | 26 ft | 30 kts | 326° |
| 2026-04-26 00:10 | -26.58456 | 153.07527 | 23 ft | 28 kts | 293° |
| 2026-04-26 00:10 | -26.58365 | 153.07460 | 22 ft | 12 kts | 70° |
| 2026-04-26 00:10 | -26.58399 | 153.07513 | 23 ft | 0 kts | 141° |
| 2026-04-26 00:10 | -26.58404 | 153.07518 | 23 ft | 6 kts | 141° |
| 2026-04-26 00:11 | -26.58648 | 153.07722 | 27 ft | 81 kts | 143° |
| 2026-04-26 00:11 | -26.59301 | 153.08289 | 36 ft | 149 kts | 142° |
| 2026-04-26 00:11 | -26.60204 | 153.09056 | 496 ft | 166 kts | 146° |
| 2026-04-26 00:11 | -26.61126 | 153.09842 | 1409 ft | 166 kts | 141° |
| 2026-04-26 00:12 | -26.62085 | 153.10678 | 1971 ft | 180 kts | 140° |
| 2026-04-26 00:12 | -26.63137 | 153.11586 | 2489 ft | 197 kts | 140° |
| 2026-04-26 00:12 | -26.64271 | 153.12598 | 3047 ft | 213 kts | 133° |
| 2026-04-26 00:12 | -26.65313 | 153.13893 | 3621 ft | 229 kts | 129° |
| 2026-04-26 00:13 | -26.66390 | 153.15295 | 4265 ft | 243 kts | 129° |
| 2026-04-26 00:13 | -26.67511 | 153.16750 | 5160 ft | 246 kts | 129° |
| 2026-04-26 00:13 | -26.68398 | 153.17897 | 5820 ft | 249 kts | 128° |
| 2026-04-26 00:13 | -26.69566 | 153.19409 | 6634 ft | 254 kts | 128° |
| 2026-04-26 00:14 | -26.70718 | 153.20934 | 7452 ft | 257 kts | 123° |
| 2026-04-26 00:14 | -26.71474 | 153.22795 | 8183 ft | 262 kts | 102° |
| 2026-04-26 00:14 | -26.71500 | 153.24835 | 8941 ft | 267 kts | 80° |
| 2026-04-26 00:14 | -26.70759 | 153.26796 | 9673 ft | 275 kts | 57° |
| 2026-04-26 00:15 | -26.69414 | 153.28377 | 10318 ft | 287 kts | 44° |
| 2026-04-26 00:15 | -26.67710 | 153.29790 | 10723 ft | 308 kts | 34° |
| 2026-04-26 00:15 | -26.65705 | 153.30905 | 11156 ft | 328 kts | 24° |
| 2026-04-26 00:15 | -26.63421 | 153.31622 | 11624 ft | 348 kts | 12° |
| 2026-04-26 00:16 | -26.60899 | 153.31831 | 12125 ft | 368 kts | 0° |
| 2026-04-26 00:16 | -26.58256 | 153.31413 | 12706 ft | 386 kts | 347° |
| 2026-04-26 00:16 | -26.55679 | 153.30298 | 13521 ft | 396 kts | 333° |
| 2026-04-26 00:16 | -26.53319 | 153.28583 | 14554 ft | 402 kts | 321° |
| 2026-04-26 00:17 | -26.51264 | 153.26387 | 15673 ft | 406 kts | 313° |
| 2026-04-26 00:17 | -26.49177 | 153.24196 | 16802 ft | 409 kts | 322° |
| 2026-04-26 00:17 | -26.46767 | 153.22423 | 17790 ft | 415 kts | 331° |
| 2026-04-26 00:17 | -26.44111 | 153.21010 | 18741 ft | 422 kts | 338° |
| 2026-04-26 00:18 | -26.41294 | 153.19879 | 19674 ft | 430 kts | 342° |
| 2026-04-26 00:18 | -26.38399 | 153.18765 | 20533 ft | 438 kts | 336° |
| 2026-04-26 00:18 | -26.35641 | 153.17107 | 21475 ft | 442 kts | 325° |
| 2026-04-26 00:18 | -26.33078 | 153.15099 | 22445 ft | 446 kts | 322° |
| 2026-04-26 00:19 | -26.30511 | 153.12994 | 23339 ft | 451 kts | 321° |
| 2026-04-26 00:19 | -26.27962 | 153.10875 | 24123 ft | 458 kts | 321° |
| 2026-04-26 00:19 | -26.25348 | 153.08685 | 24970 ft | 462 kts | 320° |
| 2026-04-26 00:19 | -26.22728 | 153.06480 | 25753 ft | 468 kts | 320° |
| 2026-04-26 00:20 | -26.20078 | 153.04244 | 26541 ft | 473 kts | 319° |
| 2026-04-26 00:20 | -26.17408 | 153.01985 | 27332 ft | 478 kts | 319° |
| 2026-04-26 00:20 | -26.14694 | 152.99687 | 28115 ft | 482 kts | 318° |
| 2026-04-26 00:20 | -26.11983 | 152.97389 | 28885 ft | 486 kts | 317° |
| 2026-04-26 00:21 | -26.09217 | 152.95073 | 29653 ft | 491 kts | 319° |
| 2026-04-26 00:21 | -26.06395 | 152.92812 | 30554 ft | 491 kts | 319° |
| 2026-04-26 00:21 | -26.03588 | 152.90573 | 31599 ft | 487 kts | 319° |
| 2026-04-26 00:21 | -26.00816 | 152.88362 | 32713 ft | 479 kts | 319° |
| 2026-04-26 00:22 | -25.98089 | 152.86186 | 33673 ft | 474 kts | 318° |
| 2026-04-26 00:22 | -25.95389 | 152.84026 | 34438 ft | 472 kts | 318° |
| 2026-04-26 00:22 | -25.92666 | 152.81848 | 35130 ft | 472 kts | 318° |
| 2026-04-26 00:22 | -25.89996 | 152.79713 | 35862 ft | 470 kts | 317° |
| 2026-04-26 00:23 | -25.87272 | 152.77534 | 36127 ft | 473 kts | 317° |
| 2026-04-26 00:23 | -25.82349 | 152.73601 | 36134 ft | 469 kts | 317° |
| 2026-04-26 00:24 | -25.76946 | 152.69286 | 36128 ft | 468 kts | 317° |
| 2026-04-26 00:24 | -25.71582 | 152.65006 | 36120 ft | 467 kts | 317° |
| 2026-04-26 00:25 | -25.66234 | 152.60744 | 36127 ft | 467 kts | 317° |
| 2026-04-26 00:25 | -25.60869 | 152.56473 | 36122 ft | 467 kts | 317° |
| 2026-04-26 00:26 | -25.55514 | 152.52214 | 36121 ft | 467 kts | 316° |
| 2026-04-26 00:26 | -25.50179 | 152.47978 | 36112 ft | 465 kts | 316° |
| 2026-04-26 00:27 | -25.44821 | 152.43726 | 36123 ft | 466 kts | 316° |
| 2026-04-26 00:27 | -25.39459 | 152.39476 | 36117 ft | 467 kts | 316° |
| 2026-04-26 00:28 | -25.34126 | 152.35254 | 36114 ft | 467 kts | 316° |
| 2026-04-26 00:28 | -25.28748 | 152.31001 | 36126 ft | 467 kts | 316° |
| 2026-04-26 00:29 | -25.23378 | 152.26761 | 36122 ft | 466 kts | 316° |
| 2026-04-26 00:29 | -25.18038 | 152.22546 | 36124 ft | 466 kts | 316° |
| 2026-04-26 00:30 | -25.12674 | 152.18320 | 36116 ft | 465 kts | 316° |
| 2026-04-26 00:30 | -25.07327 | 152.14108 | 36111 ft | 466 kts | 316° |
| 2026-04-26 00:31 | -25.02001 | 152.09923 | 36115 ft | 466 kts | 316° |
| 2026-04-26 00:31 | -24.96671 | 152.05748 | 36113 ft | 463 kts | 316° |
| 2026-04-26 00:32 | -24.91300 | 152.01546 | 36106 ft | 462 kts | 316° |
| 2026-04-26 00:32 | -24.83309 | 151.95300 | 36097 ft | 461 kts | 316° |
| 2026-04-26 00:33 | -24.78627 | 151.91646 | 36102 ft | 461 kts | 316° |
| 2026-04-26 00:33 | -24.73334 | 151.87517 | 36101 ft | 462 kts | 316° |
| 2026-04-26 00:34 | -24.68011 | 151.83371 | 36099 ft | 460 kts | 316° |
| 2026-04-26 00:34 | -24.62694 | 151.79234 | 36098 ft | 460 kts | 316° |
| 2026-04-26 00:35 | -24.57407 | 151.75125 | 36104 ft | 458 kts | 316° |
| 2026-04-26 00:35 | -24.52134 | 151.71031 | 36100 ft | 457 kts | 316° |
| 2026-04-26 00:36 | -24.46842 | 151.66927 | 36098 ft | 455 kts | 315° |
| 2026-04-26 00:36 | -24.41592 | 151.62857 | 36098 ft | 457 kts | 316° |
| 2026-04-26 00:37 | -24.36344 | 151.58795 | 36100 ft | 456 kts | 316° |
| 2026-04-26 00:37 | -24.31049 | 151.54701 | 36104 ft | 454 kts | 315° |
| 2026-04-26 00:38 | -24.25857 | 151.50691 | 36103 ft | 455 kts | 315° |
| 2026-04-26 00:38 | -24.20575 | 151.46616 | 36104 ft | 455 kts | 315° |
| 2026-04-26 00:39 | -24.15317 | 151.42561 | 36101 ft | 454 kts | 316° |
| 2026-04-26 00:39 | -24.10063 | 151.38516 | 36089 ft | 453 kts | 315° |
| 2026-04-26 00:40 | -24.04844 | 151.34500 | 36086 ft | 453 kts | 316° |
| 2026-04-26 00:40 | -23.99579 | 151.30453 | 36100 ft | 454 kts | 316° |
| 2026-04-26 00:41 | -23.94327 | 151.26424 | 36106 ft | 451 kts | 316° |
| 2026-04-26 00:41 | -23.89105 | 151.22418 | 36100 ft | 451 kts | 316° |
| 2026-04-26 00:42 | -23.83771 | 151.18512 | 36107 ft | 456 kts | 321° |
| 2026-04-26 00:42 | -23.78143 | 151.14958 | 36102 ft | 459 kts | 321° |
| 2026-04-26 00:43 | -23.73109 | 151.11768 | 36097 ft | 457 kts | 321° |
| 2026-04-26 00:43 | -23.67556 | 151.08229 | 36094 ft | 455 kts | 321° |
| 2026-04-26 00:44 | -23.62013 | 151.04688 | 36092 ft | 453 kts | 321° |
| 2026-04-26 00:44 | -23.56474 | 151.01147 | 36090 ft | 453 kts | 320° |
| 2026-04-26 00:45 | -23.50922 | 150.97598 | 36080 ft | 453 kts | 320° |
| 2026-04-26 00:45 | -23.45438 | 150.94095 | 36086 ft | 452 kts | 321° |
| 2026-04-26 00:46 | -23.39932 | 150.90581 | 36080 ft | 449 kts | 320° |
| 2026-04-26 00:46 | -23.34463 | 150.87093 | 36076 ft | 449 kts | 321° |
| 2026-04-26 00:47 | -23.28980 | 150.83598 | 36077 ft | 449 kts | 321° |
| 2026-04-26 00:47 | -23.23486 | 150.80100 | 36077 ft | 449 kts | 320° |
| 2026-04-26 00:48 | -23.18010 | 150.76616 | 36076 ft | 449 kts | 321° |
| 2026-04-26 00:48 | -23.12513 | 150.73123 | 36073 ft | 450 kts | 321° |
| 2026-04-26 00:49 | -23.07043 | 150.69653 | 36075 ft | 446 kts | 320° |
| 2026-04-26 00:49 | -23.01552 | 150.66168 | 36076 ft | 449 kts | 321° |
| 2026-04-26 00:50 | -22.96079 | 150.62701 | 36074 ft | 445 kts | 321° |
| 2026-04-26 00:50 | -22.90631 | 150.59253 | 36063 ft | 446 kts | 321° |
| 2026-04-26 00:51 | -22.85202 | 150.55818 | 36047 ft | 446 kts | 321° |
| 2026-04-26 00:51 | -22.79826 | 150.52423 | 36051 ft | 444 kts | 321° |
| 2026-04-26 00:52 | -22.74383 | 150.48987 | 36054 ft | 446 kts | 321° |
| 2026-04-26 00:52 | -22.68951 | 150.45561 | 36044 ft | 443 kts | 321° |
| 2026-04-26 00:53 | -22.64161 | 150.42541 | 36051 ft | 445 kts | 321° |
| 2026-04-26 00:53 | -22.58698 | 150.39102 | 36042 ft | 444 kts | 321° |
| 2026-04-26 00:54 | -22.53268 | 150.35687 | 36043 ft | 444 kts | 321° |
| 2026-04-26 00:54 | -22.47792 | 150.32245 | 36068 ft | 446 kts | 321° |
| 2026-04-26 00:55 | -22.42376 | 150.28847 | 36060 ft | 442 kts | 321° |
| 2026-04-26 00:55 | -22.36970 | 150.25455 | 36058 ft | 444 kts | 321° |
| 2026-04-26 00:56 | -22.31525 | 150.22041 | 36060 ft | 444 kts | 321° |
| 2026-04-26 00:56 | -22.26116 | 150.18655 | 36058 ft | 444 kts | 321° |
| 2026-04-26 00:57 | -22.20743 | 150.15147 | 36050 ft | 442 kts | 320° |
| 2026-04-26 00:57 | -22.15451 | 150.11679 | 36051 ft | 441 kts | 320° |
| 2026-04-26 00:58 | -22.10053 | 150.08148 | 36056 ft | 443 kts | 320° |
| 2026-04-26 00:58 | -22.04733 | 150.04677 | 36050 ft | 440 kts | 320° |
| 2026-04-26 00:59 | -21.99396 | 150.01196 | 36060 ft | 441 kts | 320° |
| 2026-04-26 00:59 | -21.94074 | 149.97729 | 36055 ft | 441 kts | 320° |
| 2026-04-26 01:00 | -21.88683 | 149.94222 | 36051 ft | 443 kts | 320° |
| 2026-04-26 01:00 | -21.83941 | 149.91141 | 36046 ft | 440 kts | 320° |
| 2026-04-26 01:01 | -21.78682 | 149.87727 | 35468 ft | 435 kts | 320° |
| 2026-04-26 01:01 | -21.76069 | 149.86029 | 34621 ft | 438 kts | 320° |
| 2026-04-26 01:01 | -21.73667 | 149.84470 | 33853 ft | 439 kts | 321° |
| 2026-04-26 01:02 | -21.71733 | 149.83215 | 33264 ft | 440 kts | 321° |
| 2026-04-26 01:02 | -21.69149 | 149.81538 | 32454 ft | 442 kts | 321° |
| 2026-04-26 01:02 | -21.66426 | 149.79768 | 31577 ft | 460 kts | 322° |
| 2026-04-26 01:02 | -21.63611 | 149.77940 | 30681 ft | 469 kts | 323° |
| 2026-04-26 01:03 | -21.61196 | 149.76379 | 30228 ft | 463 kts | 323° |
| 2026-04-26 01:03 | -21.58691 | 149.74764 | 29785 ft | 457 kts | 323° |
| 2026-04-26 01:03 | -21.55907 | 149.72965 | 29234 ft | 453 kts | 323° |
| 2026-04-26 01:03 | -21.53171 | 149.71197 | 28671 ft | 451 kts | 323° |
| 2026-04-26 01:04 | -21.50466 | 149.69449 | 28094 ft | 449 kts | 323° |
| 2026-04-26 01:04 | -21.47745 | 149.67691 | 27510 ft | 446 kts | 323° |
| 2026-04-26 01:04 | -21.45037 | 149.65942 | 26928 ft | 442 kts | 323° |
| 2026-04-26 01:04 | -21.42375 | 149.64226 | 26347 ft | 438 kts | 323° |
| 2026-04-26 01:05 | -21.39735 | 149.62523 | 25773 ft | 434 kts | 323° |
| 2026-04-26 01:05 | -21.37121 | 149.60837 | 25201 ft | 430 kts | 323° |
| 2026-04-26 01:05 | -21.34484 | 149.59137 | 24621 ft | 427 kts | 323° |
| 2026-04-26 01:05 | -21.31900 | 149.57472 | 24051 ft | 424 kts | 324° |
| 2026-04-26 01:06 | -21.29332 | 149.55818 | 23482 ft | 421 kts | 324° |
| 2026-04-26 01:06 | -21.26830 | 149.54207 | 22931 ft | 418 kts | 324° |
| 2026-04-26 01:06 | -21.24313 | 149.52586 | 22381 ft | 416 kts | 324° |
| 2026-04-26 01:06 | -21.21794 | 149.50964 | 21830 ft | 415 kts | 324° |
| 2026-04-26 01:07 | -21.19274 | 149.49344 | 21264 ft | 414 kts | 324° |
| 2026-04-26 01:07 | -21.16784 | 149.47743 | 20703 ft | 413 kts | 324° |
| 2026-04-26 01:07 | -21.14274 | 149.46130 | 20129 ft | 412 kts | 324° |
| 2026-04-26 01:07 | -21.11782 | 149.44530 | 19560 ft | 410 kts | 324° |
| 2026-04-26 01:08 | -21.09296 | 149.42934 | 18991 ft | 409 kts | 324° |
| 2026-04-26 01:08 | -21.06824 | 149.41345 | 18419 ft | 409 kts | 325° |
| 2026-04-26 01:08 | -21.04355 | 149.39761 | 17850 ft | 408 kts | 325° |
| 2026-04-26 01:08 | -21.01876 | 149.38171 | 17285 ft | 406 kts | 325° |
| 2026-04-26 01:09 | -20.99389 | 149.36577 | 16715 ft | 405 kts | 326° |
| 2026-04-26 01:09 | -20.96937 | 149.35007 | 16145 ft | 403 kts | 326° |
| 2026-04-26 01:09 | -20.94505 | 149.33449 | 15584 ft | 401 kts | 326° |
| 2026-04-26 01:09 | -20.92151 | 149.31941 | 15031 ft | 399 kts | 327° |
| 2026-04-26 01:10 | -20.89754 | 149.30406 | 14470 ft | 397 kts | 327° |
| 2026-04-26 01:10 | -20.87349 | 149.28868 | 13898 ft | 395 kts | 327° |
| 2026-04-26 01:10 | -20.84934 | 149.27324 | 13330 ft | 392 kts | 327° |
| 2026-04-26 01:10 | -20.82581 | 149.25818 | 12785 ft | 389 kts | 328° |
| 2026-04-26 01:11 | -20.80241 | 149.24322 | 12231 ft | 387 kts | 328° |
| 2026-04-26 01:11 | -20.77914 | 149.22836 | 11674 ft | 385 kts | 328° |
| 2026-04-26 01:11 | -20.75577 | 149.21343 | 11116 ft | 382 kts | 328° |
| 2026-04-26 01:11 | -20.73274 | 149.19873 | 10764 ft | 373 kts | 329° |
| 2026-04-26 01:12 | -20.71070 | 149.18466 | 10680 ft | 357 kts | 329° |
| 2026-04-26 01:12 | -20.68940 | 149.17108 | 10556 ft | 344 kts | 329° |
| 2026-04-26 01:12 | -20.66863 | 149.15782 | 10396 ft | 332 kts | 329° |
| 2026-04-26 01:12 | -20.64898 | 149.14529 | 10248 ft | 322 kts | 329° |
| 2026-04-26 01:13 | -20.63371 | 149.13556 | 10138 ft | 314 kts | 329° |
| 2026-04-26 01:13 | -20.61486 | 149.12355 | 9934 ft | 307 kts | 329° |
| 2026-04-26 01:13 | -20.59610 | 149.11160 | 9529 ft | 308 kts | 330° |
| 2026-04-26 01:13 | -20.57744 | 149.09972 | 9122 ft | 306 kts | 330° |
| 2026-04-26 01:14 | -20.55900 | 149.08797 | 8761 ft | 303 kts | 330° |
| 2026-04-26 01:14 | -20.54076 | 149.07636 | 8407 ft | 299 kts | 330° |
| 2026-04-26 01:14 | -20.52261 | 149.06482 | 8054 ft | 295 kts | 330° |
| 2026-04-26 01:14 | -20.50489 | 149.05354 | 7715 ft | 292 kts | 330° |
| 2026-04-26 01:15 | -20.48736 | 149.04239 | 7383 ft | 289 kts | 330° |
| 2026-04-26 01:15 | -20.46972 | 149.03117 | 7042 ft | 286 kts | 330° |
| 2026-04-26 01:15 | -20.45254 | 149.02025 | 6708 ft | 284 kts | 330° |
| 2026-04-26 01:15 | -20.43535 | 149.00932 | 6370 ft | 281 kts | 331° |
| 2026-04-26 01:16 | -20.41849 | 148.99861 | 6049 ft | 279 kts | 331° |
| 2026-04-26 01:16 | -20.40153 | 148.98785 | 5711 ft | 276 kts | 331° |
| 2026-04-26 01:16 | -20.38502 | 148.97736 | 5385 ft | 274 kts | 331° |
| 2026-04-26 01:16 | -20.36838 | 148.96681 | 5056 ft | 275 kts | 333° |
| 2026-04-26 01:17 | -20.35068 | 148.96037 | 4862 ft | 261 kts | 359° |
| 2026-04-26 01:17 | -20.33277 | 148.96149 | 4799 ft | 245 kts | 13° |
| 2026-04-26 01:17 | -20.31623 | 148.96472 | 4733 ft | 234 kts | 16° |
| 2026-04-26 01:17 | -20.30038 | 148.96846 | 4651 ft | 224 kts | 17° |
| 2026-04-26 01:18 | -20.28515 | 148.97220 | 4560 ft | 215 kts | 18° |
| 2026-04-26 01:18 | -20.27078 | 148.97563 | 4471 ft | 207 kts | 15° |
| 2026-04-26 01:18 | -20.25599 | 148.97613 | 4228 ft | 211 kts | 354° |
| 2026-04-26 01:18 | -20.24185 | 148.97063 | 3928 ft | 216 kts | 330° |
| 2026-04-26 01:19 | -20.23031 | 148.95966 | 3651 ft | 218 kts | 307° |
| 2026-04-26 01:19 | -20.22337 | 148.94553 | 3404 ft | 215 kts | 284° |
| 2026-04-26 01:19 | -20.22188 | 148.93004 | 3331 ft | 198 kts | 260° |
| 2026-04-26 01:19 | -20.22495 | 148.91608 | 3188 ft | 186 kts | 242° |
| 2026-04-26 01:20 | -20.23147 | 148.90427 | 2911 ft | 184 kts | 224° |
| 2026-04-26 01:20 | -20.24125 | 148.89481 | 2609 ft | 186 kts | 206° |
| 2026-04-26 01:20 | -20.25311 | 148.88910 | 2310 ft | 182 kts | 189° |
| 2026-04-26 01:20 | -20.26582 | 148.88762 | 2024 ft | 179 kts | 172° |
| 2026-04-26 01:21 | -20.27792 | 148.89014 | 1755 ft | 177 kts | 157° |
| 2026-04-26 01:21 | -20.28877 | 148.89627 | 1478 ft | 165 kts | 143° |
| 2026-04-26 01:21 | -20.29762 | 148.90356 | 1266 ft | 151 kts | 141° |
| 2026-04-26 01:21 | -20.30580 | 148.91022 | 1089 ft | 140 kts | 142° |
| 2026-04-26 01:22 | -20.31376 | 148.91661 | 922 ft | 141 kts | 142° |
| 2026-04-26 01:22 | -20.32167 | 148.92296 | 738 ft | 140 kts | 143° |
| 2026-04-26 01:22 | -20.32960 | 148.92934 | 557 ft | 140 kts | 143° |
| 2026-04-26 01:22 | -20.33746 | 148.93570 | 321 ft | 139 kts | 143° |
| 2026-04-26 01:23 | -20.34361 | 148.94055 | 158 ft | 137 kts | 143° |
| 2026-04-26 01:23 | -20.35137 | 148.94675 | 60 ft | 138 kts | 144° |
| 2026-04-26 01:23 | -20.35843 | 148.95241 | 35 ft | 94 kts | 143° |
| 2026-04-26 01:23 | -20.36128 | 148.95468 | 35 ft | 29 kts | 141° |
| 2026-04-26 01:24 | -20.36282 | 148.95593 | 35 ft | 25 kts | 143° |
| 2026-04-26 01:24 | -20.36385 | 148.95639 | 35 ft | 6 kts | 148° |
| 2026-04-26 01:24 | -20.36371 | 148.95664 | 34 ft | 4 kts | 343° |
| 2026-04-26 01:24 | -20.36327 | 148.95628 | 35 ft | 9 kts | 322° |
| 2026-04-26 01:25 | -20.36264 | 148.95577 | 35 ft | 12 kts | 322° |
| 2026-04-26 01:25 | -20.36183 | 148.95511 | 35 ft | 16 kts | 322° |
| 2026-04-26 01:25 | -20.36081 | 148.95428 | 35 ft | 19 kts | 323° |
| 2026-04-26 01:25 | -20.35963 | 148.95334 | 35 ft | 22 kts | 323° |
| 2026-04-26 01:26 | -20.35831 | 148.95227 | 35 ft | 24 kts | 323° |
| 2026-04-26 01:26 | -20.35683 | 148.95113 | 35 ft | 26 kts | 324° |
| 2026-04-26 01:26 | -20.35535 | 148.94992 | 36 ft | 24 kts | 322° |
| 2026-04-26 01:26 | -20.35438 | 148.94917 | 35 ft | 8 kts | 347° |
| 2026-04-26 01:27 | -20.35397 | 148.94954 | 36 ft | 6 kts | 53° |
| 2026-04-26 01:27 | -20.35374 | 148.94986 | 38 ft | 4 kts | 52° |
| 2026-04-26 01:27 | -20.35367 | 148.95001 | 38 ft | 0 kts | 84° |
| 2026-04-26 01:27 | -20.35368 | 148.95006 | 38 ft | 0 kts | 97° |
| 2026-04-26 01:28 | -20.35374 | 148.95021 | 39 ft | 2 kts | 124° |
| 2026-04-26 01:28 | -20.35378 | 148.95026 | 39 ft | 0 kts | 137° |